sensor_id;sensor_type;location;lat;lon;timestamp;pressure;altitude;pressure_sealevel;temperature;humidity
11124;BME280;5616;42.692;23.312;2023-04-06T00:00:10;94905.59;;;2.34;69.16
11124;BME280;5616;42.692;23.312;2023-04-06T00:02:37;94903.47;;;2.30;69.67
11124;BME280;5616;42.692;23.312;2023-04-06T00:05:05;94902.13;;;2.35;69.72
11124;BME280;5616;42.692;23.312;2023-04-06T00:07:32;94892.50;;;2.39;70.61
11124;BME280;5616;42.692;23.312;2023-04-06T00:10:01;94902.69;;;2.39;69.55
11124;BME280;5616;42.692;23.312;2023-04-06T00:12:28;94896.50;;;2.41;69.40
11124;BME280;5616;42.692;23.312;2023-04-06T00:14:55;94888.88;;;2.41;69.09
11124;BME280;5616;42.692;23.312;2023-04-06T00:17:22;94881.34;;;2.40;70.32
11124;BME280;5616;42.692;23.312;2023-04-06T00:19:49;94877.19;;;2.39;69.61
11124;BME280;5616;42.692;23.312;2023-04-06T00:22:15;94879.09;;;2.37;69.40
11124;BME280;5616;42.692;23.312;2023-04-06T00:24:42;94875.31;;;2.41;69.91
11124;BME280;5616;42.692;23.312;2023-04-06T00:27:10;94878.00;;;2.39;69.40
11124;BME280;5616;42.692;23.312;2023-04-06T00:29:37;94875.97;;;2.43;69.26
11124;BME280;5616;42.692;23.312;2023-04-06T00:32:04;94871.84;;;2.42;68.54
11124;BME280;5616;42.692;23.312;2023-04-06T00:34:31;94863.25;;;2.43;69.04
11124;BME280;5616;42.692;23.312;2023-04-06T00:36:58;94869.69;;;2.37;69.84
11124;BME280;5616;42.692;23.312;2023-04-06T00:39:25;94865.53;;;2.36;70.27
11124;BME280;5616;42.692;23.312;2023-04-06T00:41:52;94869.03;;;2.35;69.34
11124;BME280;5616;42.692;23.312;2023-04-06T00:44:22;94865.81;;;2.33;69.53
11124;BME280;5616;42.692;23.312;2023-04-06T00:46:49;94863.00;;;2.36;68.57
11124;BME280;5616;42.692;23.312;2023-04-06T00:49:16;94856.97;;;2.28;69.05
11124;BME280;5616;42.692;23.312;2023-04-06T00:51:43;94855.50;;;2.25;68.83
11124;BME280;5616;42.692;23.312;2023-04-06T00:54:10;94864.06;;;2.34;69.00
11124;BME280;5616;42.692;23.312;2023-04-06T00:56:38;94862.19;;;2.36;69.67
11124;BME280;5616;42.692;23.312;2023-04-06T00:59:05;94856.00;;;2.38;69.75
11124;BME280;5616;42.692;23.312;2023-04-06T01:01:34;94852.13;;;2.34;69.36
11124;BME280;5616;42.692;23.312;2023-04-06T01:04:08;94860.03;;;2.41;69.43
11124;BME280;5616;42.692;23.312;2023-04-06T01:06:39;94858.69;;;2.46;69.40
11124;BME280;5616;42.692;23.312;2023-04-06T01:09:06;94856.56;;;2.42;68.90
11124;BME280;5616;42.692;23.312;2023-04-06T01:11:35;94851.19;;;2.35;69.36
11124;BME280;5616;42.692;23.312;2023-04-06T01:14:05;94849.84;;;2.41;69.23
11124;BME280;5616;42.692;23.312;2023-04-06T01:16:51;94853.59;;;2.27;70.08
11124;BME280;5616;42.692;23.312;2023-04-06T01:19:23;94851.06;;;2.37;70.03
11124;BME280;5616;42.692;23.312;2023-04-06T01:21:52;94852.47;;;2.59;68.86
11124;BME280;5616;42.692;23.312;2023-04-06T01:24:29;94846.97;;;2.63;68.35
11124;BME280;5616;42.692;23.312;2023-04-06T01:27:02;94845.88;;;2.75;68.42
11124;BME280;5616;42.692;23.312;2023-04-06T01:29:47;94847.19;;;2.79;68.57
11124;BME280;5616;42.692;23.312;2023-04-06T01:32:21;94843.16;;;2.86;68.15
11124;BME280;5616;42.692;23.312;2023-04-06T01:34:50;94842.78;;;2.81;67.98
11124;BME280;5616;42.692;23.312;2023-04-06T01:37:18;94837.53;;;2.36;69.52
11124;BME280;5616;42.692;23.312;2023-04-06T01:39:46;94831.69;;;2.54;69.09
11124;BME280;5616;42.692;23.312;2023-04-06T01:42:23;94839.34;;;2.63;68.64
11124;BME280;5616;42.692;23.312;2023-04-06T01:44:51;94834.47;;;2.70;69.28
11124;BME280;5616;42.692;23.312;2023-04-06T01:47:18;94840.63;;;2.77;68.57
11124;BME280;5616;42.692;23.312;2023-04-06T01:49:46;94835.03;;;2.64;68.62
11124;BME280;5616;42.692;23.312;2023-04-06T01:52:13;94830.03;;;2.72;67.93
11124;BME280;5616;42.692;23.312;2023-04-06T01:54:46;94840.63;;;2.77;68.19
11124;BME280;5616;42.692;23.312;2023-04-06T01:57:16;94841.81;;;2.82;68.14
11124;BME280;5616;42.692;23.312;2023-04-06T01:59:50;94826.88;;;2.87;67.83
11124;BME280;5616;42.692;23.312;2023-04-06T02:02:26;94824.97;;;2.99;68.84
11124;BME280;5616;42.692;23.312;2023-04-06T02:05:00;94830.81;;;3.09;68.57
11124;BME280;5616;42.692;23.312;2023-04-06T02:07:28;94826.69;;;3.08;67.76
11124;BME280;5616;42.692;23.312;2023-04-06T02:09:56;94819.97;;;3.07;68.04
11124;BME280;5616;42.692;23.312;2023-04-06T02:12:32;94818.22;;;3.07;68.75
11124;BME280;5616;42.692;23.312;2023-04-06T02:14:59;94819.97;;;3.07;67.88
11124;BME280;5616;42.692;23.312;2023-04-06T02:17:26;94813.97;;;2.98;67.99
11124;BME280;5616;42.692;23.312;2023-04-06T02:19:53;94818.50;;;3.04;67.46
11124;BME280;5616;42.692;23.312;2023-04-06T02:22:20;94823.16;;;3.19;66.88
11124;BME280;5616;42.692;23.312;2023-04-06T02:24:47;94814.16;;;3.15;67.58
11124;BME280;5616;42.692;23.312;2023-04-06T02:27:15;94818.94;;;3.00;69.50
11124;BME280;5616;42.692;23.312;2023-04-06T02:29:46;94823.34;;;3.07;69.50
11124;BME280;5616;42.692;23.312;2023-04-06T02:32:14;94824.34;;;3.15;70.51
11124;BME280;5616;42.692;23.312;2023-04-06T02:34:41;94823.34;;;3.07;69.61
11124;BME280;5616;42.692;23.312;2023-04-06T02:37:09;94815.91;;;3.14;69.70
11124;BME280;5616;42.692;23.312;2023-04-06T02:39:35;94821.50;;;3.00;70.13
11124;BME280;5616;42.692;23.312;2023-04-06T02:42:06;94820.91;;;3.06;70.70
11124;BME280;5616;42.692;23.312;2023-04-06T02:44:35;94822.16;;;3.02;70.65
11124;BME280;5616;42.692;23.312;2023-04-06T02:47:02;94822.81;;;3.04;70.44
11124;BME280;5616;42.692;23.312;2023-04-06T02:49:29;94819.69;;;3.10;70.98
11124;BME280;5616;42.692;23.312;2023-04-06T02:51:58;94823.06;;;3.11;70.13
11124;BME280;5616;42.692;23.312;2023-04-06T02:54:29;94823.47;;;3.06;70.09
11124;BME280;5616;42.692;23.312;2023-04-06T02:56:56;94817.78;;;3.12;70.31
11124;BME280;5616;42.692;23.312;2023-04-06T02:59:30;94815.25;;;3.12;70.05
11124;BME280;5616;42.692;23.312;2023-04-06T03:02:06;94820.06;;;3.15;70.42
11124;BME280;5616;42.692;23.312;2023-04-06T03:04:33;94821.66;;;3.16;70.76
11124;BME280;5616;42.692;23.312;2023-04-06T03:07:03;94820.16;;;3.23;69.74
11124;BME280;5616;42.692;23.312;2023-04-06T03:09:37;94818.22;;;3.07;70.01
11124;BME280;5616;42.692;23.312;2023-04-06T03:12:04;94819.66;;;2.83;68.73
11124;BME280;5616;42.692;23.312;2023-04-06T03:14:42;94818.94;;;3.00;67.89
11124;BME280;5616;42.692;23.312;2023-04-06T03:17:10;94816.66;;;2.97;68.36
11124;BME280;5616;42.692;23.312;2023-04-06T03:19:37;94817.88;;;2.93;68.64
11124;BME280;5616;42.692;23.312;2023-04-06T03:22:05;94816.75;;;3.05;68.63
11124;BME280;5616;42.692;23.312;2023-04-06T03:24:31;94815.53;;;3.09;67.36
11124;BME280;5616;42.692;23.312;2023-04-06T03:26:58;94823.56;;;2.77;69.37
11124;BME280;5616;42.692;23.312;2023-04-06T03:29:26;94813.03;;;2.63;69.17
11124;BME280;5616;42.692;23.312;2023-04-06T03:31:53;94815.28;;;2.75;69.26
11124;BME280;5616;42.692;23.312;2023-04-06T03:34:38;94821.06;;;2.68;69.88
11124;BME280;5616;42.692;23.312;2023-04-06T03:37:07;94808.53;;;2.47;68.38
11124;BME280;5616;42.692;23.312;2023-04-06T03:39:35;94818.03;;;2.55;69.80
11124;BME280;5616;42.692;23.312;2023-04-06T03:42:03;94810.09;;;2.58;70.00
11124;BME280;5616;42.692;23.312;2023-04-06T03:44:34;94813.44;;;2.68;68.55
11124;BME280;5616;42.692;23.312;2023-04-06T03:47:02;94814.94;;;2.51;68.93
11124;BME280;5616;42.692;23.312;2023-04-06T03:49:29;94810.31;;;2.37;69.48
11124;BME280;5616;42.692;23.312;2023-04-06T03:51:59;94807.84;;;2.45;70.14
11124;BME280;5616;42.692;23.312;2023-04-06T03:54:26;94813.78;;;2.36;69.46
11124;BME280;5616;42.692;23.312;2023-04-06T03:56:52;94814.03;;;2.42;70.60
11124;BME280;5616;42.692;23.312;2023-04-06T03:59:20;94815.81;;;2.69;69.40
11124;BME280;5616;42.692;23.312;2023-04-06T04:01:47;94817.00;;;2.84;69.02
11124;BME280;5616;42.692;23.312;2023-04-06T04:04:14;94818.84;;;2.92;70.04
11124;BME280;5616;42.692;23.312;2023-04-06T04:06:40;94813.84;;;3.00;71.37
11124;BME280;5616;42.692;23.312;2023-04-06T04:09:09;94814.50;;;3.02;70.59
11124;BME280;5616;42.692;23.312;2023-04-06T04:11:36;94813.34;;;3.14;69.13
11124;BME280;5616;42.692;23.312;2023-04-06T04:14:03;94821.47;;;3.27;69.27
11124;BME280;5616;42.692;23.312;2023-04-06T04:16:30;94817.47;;;3.25;68.51
11124;BME280;5616;42.692;23.312;2023-04-06T04:18:57;94816.28;;;3.19;69.83
11124;BME280;5616;42.692;23.312;2023-04-06T04:21:24;94822.47;;;3.17;69.04
11124;BME280;5616;42.692;23.312;2023-04-06T04:23:52;94813.22;;;3.16;70.06
11124;BME280;5616;42.692;23.312;2023-04-06T04:26:20;94820.72;;;3.17;69.18
11124;BME280;5616;42.692;23.312;2023-04-06T04:28:47;94807.31;;;2.88;69.97
11124;BME280;5616;42.692;23.312;2023-04-06T04:31:14;94820.44;;;2.93;71.14
11124;BME280;5616;42.692;23.312;2023-04-06T04:33:43;94815.81;;;3.06;70.11
11124;BME280;5616;42.692;23.312;2023-04-06T04:36:16;94824.50;;;3.13;68.82
11124;BME280;5616;42.692;23.312;2023-04-06T04:38:43;94825.81;;;3.17;68.88
11124;BME280;5616;42.692;23.312;2023-04-06T04:41:10;94824.13;;;3.08;68.92
11124;BME280;5616;42.692;23.312;2023-04-06T04:43:42;94821.78;;;2.87;68.61
11124;BME280;5616;42.692;23.312;2023-04-06T04:46:10;94817.50;;;2.88;69.98
11124;BME280;5616;42.692;23.312;2023-04-06T04:48:39;94815.00;;;2.69;69.73
11124;BME280;5616;42.692;23.312;2023-04-06T04:51:07;94818.84;;;2.92;69.14
11124;BME280;5616;42.692;23.312;2023-04-06T04:53:49;94812.38;;;2.97;67.35
11124;BME280;5616;42.692;23.312;2023-04-06T04:56:21;94813.41;;;3.04;67.33
11124;BME280;5616;42.692;23.312;2023-04-06T04:58:54;94810.75;;;2.96;68.01
11124;BME280;5616;42.692;23.312;2023-04-06T05:01:21;94821.06;;;3.04;68.04
11124;BME280;5616;42.692;23.312;2023-04-06T05:03:49;94820.13;;;3.05;68.41
11124;BME280;5616;42.692;23.312;2023-04-06T05:06:16;94809.50;;;3.10;68.65
11124;BME280;5616;42.692;23.312;2023-04-06T05:08:44;94815.91;;;3.14;68.88
11124;BME280;5616;42.692;23.312;2023-04-06T05:11:11;94807.53;;;3.22;68.00
11124;BME280;5616;42.692;23.312;2023-04-06T05:13:43;94808.00;;;3.35;67.51
11124;BME280;5616;42.692;23.312;2023-04-06T05:16:19;94810.25;;;3.38;66.48
11124;BME280;5616;42.692;23.312;2023-04-06T05:18:47;94812.41;;;3.42;66.97
11124;BME280;5616;42.692;23.312;2023-04-06T05:21:14;94810.22;;;3.47;67.22
11124;BME280;5616;42.692;23.312;2023-04-06T05:23:57;94816.34;;;3.54;67.05
11124;BME280;5616;42.692;23.312;2023-04-06T05:26:26;94812.34;;;3.52;67.91
11124;BME280;5616;42.692;23.312;2023-04-06T05:28:57;94814.63;;;3.45;67.45
11124;BME280;5616;42.692;23.312;2023-04-06T05:31:27;94808.53;;;3.56;67.58
11124;BME280;5616;42.692;23.312;2023-04-06T05:33:54;94814.06;;;3.69;68.16
11124;BME280;5616;42.692;23.312;2023-04-06T05:36:33;94815.25;;;3.75;67.64
11124;BME280;5616;42.692;23.312;2023-04-06T05:39:06;94813.59;;;3.65;68.97
11124;BME280;5616;42.692;23.312;2023-04-06T05:41:38;94817.88;;;3.65;67.98
11124;BME280;5616;42.692;23.312;2023-04-06T05:44:07;94810.75;;;3.68;68.09
11124;BME280;5616;42.692;23.312;2023-04-06T05:46:35;94807.50;;;3.66;67.50
11124;BME280;5616;42.692;23.312;2023-04-06T05:49:03;94805.81;;;3.40;69.71
11124;BME280;5616;42.692;23.312;2023-04-06T05:51:32;94802.50;;;3.57;69.84
11124;BME280;5616;42.692;23.312;2023-04-06T05:53:59;94805.94;;;3.65;68.82
11124;BME280;5616;42.692;23.312;2023-04-06T05:56:27;94803.28;;;3.75;68.29
11124;BME280;5616;42.692;23.312;2023-04-06T05:58:55;94804.22;;;3.74;69.66
11124;BME280;5616;42.692;23.312;2023-04-06T06:01:26;94799.94;;;3.92;67.69
11124;BME280;5616;42.692;23.312;2023-04-06T06:03:56;94792.25;;;4.10;67.12
11124;BME280;5616;42.692;23.312;2023-04-06T06:06:27;94790.44;;;4.02;68.24
11124;BME280;5616;42.692;23.312;2023-04-06T06:09:10;94791.38;;;4.01;68.73
11124;BME280;5616;42.692;23.312;2023-04-06T06:11:43;94799.69;;;4.21;68.15
11124;BME280;5616;42.692;23.312;2023-04-06T06:14:13;94798.78;;;4.30;67.16
11124;BME280;5616;42.692;23.312;2023-04-06T06:16:41;94792.78;;;4.39;67.08
11124;BME280;5616;42.692;23.312;2023-04-06T06:19:11;94794.94;;;4.52;66.77
11124;BME280;5616;42.692;23.312;2023-04-06T06:21:39;94787.75;;;4.55;66.31
11124;BME280;5616;42.692;23.312;2023-04-06T06:24:06;94791.53;;;4.77;66.57
11124;BME280;5616;42.692;23.312;2023-04-06T06:26:33;94798.38;;;5.02;65.10
11124;BME280;5616;42.692;23.312;2023-04-06T06:29:03;94797.63;;;5.18;64.95
11124;BME280;5616;42.692;23.312;2023-04-06T06:31:32;94789.50;;;5.30;63.61
11124;BME280;5616;42.692;23.312;2023-04-06T06:33:59;94788.44;;;5.41;62.95
11124;BME280;5616;42.692;23.312;2023-04-06T06:36:29;94795.81;;;5.52;63.09
11124;BME280;5616;42.692;23.312;2023-04-06T06:38:57;94795.66;;;5.53;63.09
11124;BME280;5616;42.692;23.312;2023-04-06T06:41:25;94798.88;;;5.55;63.95
11124;BME280;5616;42.692;23.312;2023-04-06T06:43:52;94791.06;;;5.73;62.11
11124;BME280;5616;42.692;23.312;2023-04-06T06:46:20;94791.19;;;5.72;62.70
11124;BME280;5616;42.692;23.312;2023-04-06T06:48:47;94804.88;;;5.88;61.71
11124;BME280;5616;42.692;23.312;2023-04-06T06:51:14;94796.56;;;5.94;60.64
11124;BME280;5616;42.692;23.312;2023-04-06T06:53:42;94806.78;;;5.86;60.96
11124;BME280;5616;42.692;23.312;2023-04-06T06:56:09;94817.22;;;5.43;62.50
11124;BME280;5616;42.692;23.312;2023-04-06T06:58:36;94803.03;;;5.56;61.92
11124;BME280;5616;42.692;23.312;2023-04-06T07:01:04;94798.13;;;5.79;61.49
11124;BME280;5616;42.692;23.312;2023-04-06T07:03:33;94803.94;;;6.05;61.30
11124;BME280;5616;42.692;23.312;2023-04-06T07:05:59;94805.84;;;6.20;60.71
11124;BME280;5616;42.692;23.312;2023-04-06T07:08:26;94802.16;;;6.14;60.01
11124;BME280;5616;42.692;23.312;2023-04-06T07:10:54;94801.19;;;5.91;60.77
11124;BME280;5616;42.692;23.312;2023-04-06T07:13:22;94798.47;;;5.92;60.15
11124;BME280;5616;42.692;23.312;2023-04-06T07:15:52;94791.41;;;5.86;60.17
11124;BME280;5616;42.692;23.312;2023-04-06T07:18:19;94797.44;;;5.77;61.35
11124;BME280;5616;42.692;23.312;2023-04-06T07:20:46;94803.84;;;5.65;62.20
11124;BME280;5616;42.692;23.312;2023-04-06T07:23:14;94796.97;;;5.74;62.30
11124;BME280;5616;42.692;23.312;2023-04-06T07:25:41;94788.78;;;5.54;62.59
11124;BME280;5616;42.692;23.312;2023-04-06T07:28:10;94797.94;;;5.73;62.28
11124;BME280;5616;42.692;23.312;2023-04-06T07:30:38;94793.50;;;5.91;62.04
11124;BME280;5616;42.692;23.312;2023-04-06T07:33:05;94808.66;;;5.68;62.83
11124;BME280;5616;42.692;23.312;2023-04-06T07:35:34;94795.25;;;5.98;60.83
11124;BME280;5616;42.692;23.312;2023-04-06T07:38:02;94801.19;;;5.99;61.26
11124;BME280;5616;42.692;23.312;2023-04-06T07:40:30;94800.56;;;6.21;59.95
11124;BME280;5616;42.692;23.312;2023-04-06T07:42:58;94786.59;;;6.48;59.31
11124;BME280;5616;42.692;23.312;2023-04-06T07:45:26;94793.59;;;6.62;58.92
11124;BME280;5616;42.692;23.312;2023-04-06T07:47:54;94788.25;;;6.88;58.11
11124;BME280;5616;42.692;23.312;2023-04-06T07:50:21;94794.41;;;7.17;58.48
11124;BME280;5616;42.692;23.312;2023-04-06T07:52:48;94793.31;;;7.04;58.22
11124;BME280;5616;42.692;23.312;2023-04-06T07:55:15;94797.56;;;7.27;56.47
11124;BME280;5616;42.692;23.312;2023-04-06T07:57:42;94795.66;;;7.60;55.85
11124;BME280;5616;42.692;23.312;2023-04-06T08:00:10;94785.16;;;7.92;55.38
11124;BME280;5616;42.692;23.312;2023-04-06T08:02:41;94788.94;;;8.05;54.74
11124;BME280;5616;42.692;23.312;2023-04-06T08:05:09;94791.88;;;7.71;55.41
11124;BME280;5616;42.692;23.312;2023-04-06T08:07:35;94780.19;;;7.91;54.37
11124;BME280;5616;42.692;23.312;2023-04-06T08:10:03;94774.47;;;8.03;54.64
11124;BME280;5616;42.692;23.312;2023-04-06T08:12:30;94778.38;;;8.14;54.64
11124;BME280;5616;42.692;23.312;2023-04-06T08:14:57;94784.78;;;8.41;53.85
11124;BME280;5616;42.692;23.312;2023-04-06T08:17:23;94774.53;;;8.70;52.47
11124;BME280;5616;42.692;23.312;2023-04-06T08:19:52;94776.66;;;8.96;51.56
11124;BME280;5616;42.692;23.312;2023-04-06T08:22:19;94776.25;;;8.92;51.45
11124;BME280;5616;42.692;23.312;2023-04-06T08:24:46;94783.16;;;9.21;50.29
11124;BME280;5616;42.692;23.312;2023-04-06T08:27:13;94790.13;;;9.42;49.92
11124;BME280;5616;42.692;23.312;2023-04-06T08:29:40;94795.16;;;8.85;51.38
11124;BME280;5616;42.692;23.312;2023-04-06T08:32:07;94782.69;;;8.44;52.13
11124;BME280;5616;42.692;23.312;2023-04-06T08:34:34;94781.34;;;8.48;51.34
11124;BME280;5616;42.692;23.312;2023-04-06T08:37:02;94787.38;;;9.43;50.34
11124;BME280;5616;42.692;23.312;2023-04-06T08:39:29;94783.56;;;9.39;49.14
11124;BME280;5616;42.692;23.312;2023-04-06T08:41:56;94783.19;;;10.14;47.47
11124;BME280;5616;42.692;23.312;2023-04-06T08:44:25;94777.81;;;9.94;48.39
11124;BME280;5616;42.692;23.312;2023-04-06T08:46:52;94775.25;;;8.64;50.47
11124;BME280;5616;42.692;23.312;2023-04-06T08:49:19;94777.06;;;8.41;52.08
11124;BME280;5616;42.692;23.312;2023-04-06T08:51:47;94790.72;;;8.79;50.65
11124;BME280;5616;42.692;23.312;2023-04-06T08:54:15;94789.19;;;9.28;49.53
11124;BME280;5616;42.692;23.312;2023-04-06T08:56:42;94780.03;;;9.40;48.58
11124;BME280;5616;42.692;23.312;2023-04-06T08:59:09;94784.84;;;9.29;48.97
11124;BME280;5616;42.692;23.312;2023-04-06T09:01:39;94781.91;;;9.17;49.36
11124;BME280;5616;42.692;23.312;2023-04-06T09:04:08;94771.88;;;9.58;49.61
11124;BME280;5616;42.692;23.312;2023-04-06T09:06:36;94768.72;;;10.40;47.19
11124;BME280;5616;42.692;23.312;2023-04-06T09:09:03;94775.19;;;10.85;46.01
11124;BME280;5616;42.692;23.312;2023-04-06T09:11:43;94773.38;;;11.14;44.50
11124;BME280;5616;42.692;23.312;2023-04-06T09:14:09;94767.84;;;10.55;46.34
11124;BME280;5616;42.692;23.312;2023-04-06T09:16:39;94770.00;;;10.30;45.31
11124;BME280;5616;42.692;23.312;2023-04-06T09:19:07;94767.78;;;10.48;45.71
11124;BME280;5616;42.692;23.312;2023-04-06T09:21:34;94775.81;;;10.32;46.72
11124;BME280;5616;42.692;23.312;2023-04-06T09:24:02;94766.03;;;10.27;46.17
11124;BME280;5616;42.692;23.312;2023-04-06T09:26:29;94762.22;;;10.02;46.42
11124;BME280;5616;42.692;23.312;2023-04-06T09:29:00;94768.59;;;10.27;45.79
11124;BME280;5616;42.692;23.312;2023-04-06T09:31:30;94753.94;;;10.28;46.75
11124;BME280;5616;42.692;23.312;2023-04-06T09:33:59;94759.22;;;10.20;45.90
11124;BME280;5616;42.692;23.312;2023-04-06T09:36:33;94772.09;;;9.99;45.86
11124;BME280;5616;42.692;23.312;2023-04-06T09:39:01;94769.09;;;9.74;47.03
11124;BME280;5616;42.692;23.312;2023-04-06T09:41:30;94770.13;;;9.58;47.00
11124;BME280;5616;42.692;23.312;2023-04-06T09:44:06;94760.13;;;9.19;48.58
11124;BME280;5616;42.692;23.312;2023-04-06T09:46:34;94762.53;;;9.21;49.16
11124;BME280;5616;42.692;23.312;2023-04-06T09:49:02;94766.28;;;9.04;49.62
11124;BME280;5616;42.692;23.312;2023-04-06T09:51:31;94767.44;;;9.16;49.72
11124;BME280;5616;42.692;23.312;2023-04-06T09:54:03;94755.03;;;9.41;49.56
11124;BME280;5616;42.692;23.312;2023-04-06T09:56:33;94762.97;;;9.24;49.84
11124;BME280;5616;42.692;23.312;2023-04-06T09:59:09;94769.22;;;9.15;47.90
11124;BME280;5616;42.692;23.312;2023-04-06T10:01:39;94757.31;;;9.14;47.91
11124;BME280;5616;42.692;23.312;2023-04-06T10:04:14;94773.28;;;9.24;47.97
11124;BME280;5616;42.692;23.312;2023-04-06T10:06:46;94769.22;;;9.15;48.33
11124;BME280;5616;42.692;23.312;2023-04-06T10:09:18;94757.50;;;9.13;48.42
11124;BME280;5616;42.692;23.312;2023-04-06T10:11:49;94765.06;;;9.00;50.05
11124;BME280;5616;42.692;23.312;2023-04-06T10:14:18;94772.25;;;9.19;48.51
11124;BME280;5616;42.692;23.312;2023-04-06T10:16:45;94763.97;;;8.80;49.46
11124;BME280;5616;42.692;23.312;2023-04-06T10:19:18;94750.50;;;8.92;47.58
11124;BME280;5616;42.692;23.312;2023-04-06T10:21:51;94755.38;;;8.87;47.90
11124;BME280;5616;42.692;23.312;2023-04-06T10:24:20;94760.34;;;8.74;49.64
11124;BME280;5616;42.692;23.312;2023-04-06T10:26:57;94754.06;;;8.77;49.39
11124;BME280;5616;42.692;23.312;2023-04-06T10:29:25;94758.22;;;8.92;48.64
11124;BME280;5616;42.692;23.312;2023-04-06T10:31:52;94745.00;;;8.81;49.43
11124;BME280;5616;42.692;23.312;2023-04-06T10:34:20;94733.53;;;8.83;47.45
11124;BME280;5616;42.692;23.312;2023-04-06T10:36:47;94747.09;;;8.77;47.85
11124;BME280;5616;42.692;23.312;2023-04-06T10:39:14;94741.50;;;8.59;48.72
11124;BME280;5616;42.692;23.312;2023-04-06T10:41:51;94740.09;;;8.56;50.33
11124;BME280;5616;42.692;23.312;2023-04-06T10:44:20;94741.88;;;8.41;49.10
11124;BME280;5616;42.692;23.312;2023-04-06T10:46:54;94743.13;;;8.23;50.53
11124;BME280;5616;42.692;23.312;2023-04-06T10:49:21;94739.97;;;8.35;50.29
11124;BME280;5616;42.692;23.312;2023-04-06T10:51:51;94750.66;;;8.61;50.15
11124;BME280;5616;42.692;23.312;2023-04-06T10:54:19;94739.75;;;8.45;50.54
11124;BME280;5616;42.692;23.312;2023-04-06T10:56:48;94745.03;;;8.29;50.91
11124;BME280;5616;42.692;23.312;2023-04-06T10:59:18;94753.84;;;8.34;51.42
11124;BME280;5616;42.692;23.312;2023-04-06T11:01:45;94751.34;;;7.81;51.20
11124;BME280;5616;42.692;23.312;2023-04-06T11:04:17;94737.09;;;8.16;50.06
11124;BME280;5616;42.692;23.312;2023-04-06T11:06:47;94738.66;;;8.39;51.74
11124;BME280;5616;42.692;23.312;2023-04-06T11:09:23;94743.50;;;8.72;49.88
11124;BME280;5616;42.692;23.312;2023-04-06T11:11:51;94739.13;;;8.87;48.17
11124;BME280;5616;42.692;23.312;2023-04-06T11:14:18;94724.66;;;9.00;47.10
11124;BME280;5616;42.692;23.312;2023-04-06T11:16:46;94730.88;;;9.06;47.90
11124;BME280;5616;42.692;23.312;2023-04-06T11:19:13;94734.41;;;9.05;48.71
11124;BME280;5616;42.692;23.312;2023-04-06T11:21:43;94729.22;;;9.19;47.08
11124;BME280;5616;42.692;23.312;2023-04-06T11:24:13;94725.72;;;9.06;48.15
11124;BME280;5616;42.692;23.312;2023-04-06T11:26:42;94715.22;;;9.07;48.03
11124;BME280;5616;42.692;23.312;2023-04-06T11:29:10;94720.09;;;9.17;47.14
11124;BME280;5616;42.692;23.312;2023-04-06T11:31:41;94712.09;;;9.27;45.88
11124;BME280;5616;42.692;23.312;2023-04-06T11:34:16;94713.44;;;9.44;46.51
11124;BME280;5616;42.692;23.312;2023-04-06T11:36:46;94714.13;;;9.52;45.10
11124;BME280;5616;42.692;23.312;2023-04-06T11:39:17;94699.75;;;9.43;47.43
11124;BME280;5616;42.692;23.312;2023-04-06T11:41:47;94699.28;;;9.54;47.34
11124;BME280;5616;42.692;23.312;2023-04-06T11:44:14;94699.03;;;9.49;44.69
11124;BME280;5616;42.692;23.312;2023-04-06T11:46:51;94700.47;;;9.16;47.15
11124;BME280;5616;42.692;23.312;2023-04-06T11:49:18;94697.69;;;9.17;47.55
11124;BME280;5616;42.692;23.312;2023-04-06T11:51:47;94693.41;;;9.24;48.63
11124;BME280;5616;42.692;23.312;2023-04-06T11:54:14;94687.16;;;9.12;48.01
11124;BME280;5616;42.692;23.312;2023-04-06T11:56:46;94687.94;;;9.13;47.73
11124;BME280;5616;42.692;23.312;2023-04-06T11:59:13;94689.78;;;8.83;48.87
11124;BME280;5616;42.692;23.312;2023-04-06T12:01:45;94690.31;;;8.79;49.75
11124;BME280;5616;42.692;23.312;2023-04-06T12:04:12;94692.97;;;8.85;48.92
11124;BME280;5616;42.692;23.312;2023-04-06T12:06:38;94691.47;;;8.76;48.34
11124;BME280;5616;42.692;23.312;2023-04-06T12:09:07;94684.13;;;8.58;49.68
11124;BME280;5616;42.692;23.312;2023-04-06T12:11:34;94693.78;;;8.71;48.74
11124;BME280;5616;42.692;23.312;2023-04-06T12:14:00;94685.44;;;8.54;48.91
11124;BME280;5616;42.692;23.312;2023-04-06T12:16:30;94686.31;;;8.61;48.94
11124;BME280;5616;42.692;23.312;2023-04-06T12:18:57;94688.44;;;8.87;48.32
11124;BME280;5616;42.692;23.312;2023-04-06T12:21:24;94681.41;;;8.96;48.00
11124;BME280;5616;42.692;23.312;2023-04-06T12:23:50;94685.13;;;8.93;48.84
11124;BME280;5616;42.692;23.312;2023-04-06T12:26:19;94686.19;;;8.99;47.43
11124;BME280;5616;42.692;23.312;2023-04-06T12:28:45;94674.97;;;8.71;49.63
11124;BME280;5616;42.692;23.312;2023-04-06T12:31:15;94675.22;;;8.76;49.94
11124;BME280;5616;42.692;23.312;2023-04-06T12:33:43;94681.16;;;8.91;48.57
11124;BME280;5616;42.692;23.312;2023-04-06T12:36:12;94680.78;;;8.94;47.56
11124;BME280;5616;42.692;23.312;2023-04-06T12:38:39;94676.00;;;8.91;47.52
11124;BME280;5616;42.692;23.312;2023-04-06T12:41:06;94687.72;;;8.93;47.70
11124;BME280;5616;42.692;23.312;2023-04-06T12:43:34;94672.00;;;9.03;46.75
11124;BME280;5616;42.692;23.312;2023-04-06T12:46:01;94669.53;;;8.95;46.52
11124;BME280;5616;42.692;23.312;2023-04-06T12:48:28;94665.59;;;8.99;47.74
11124;BME280;5616;42.692;23.312;2023-04-06T12:50:57;94666.59;;;8.83;48.77
11124;BME280;5616;42.692;23.312;2023-04-06T12:53:24;94664.91;;;8.90;48.20
11124;BME280;5616;42.692;23.312;2023-04-06T12:55:52;94666.16;;;8.94;47.65
11124;BME280;5616;42.692;23.312;2023-04-06T12:58:20;94661.19;;;8.93;47.65
11124;BME280;5616;42.692;23.312;2023-04-06T13:00:49;94658.31;;;8.88;47.75
11124;BME280;5616;42.692;23.312;2023-04-06T13:03:17;94664.41;;;8.66;49.64
11124;BME280;5616;42.692;23.312;2023-04-06T13:05:44;94665.81;;;8.53;50.14
11124;BME280;5616;42.692;23.312;2023-04-06T13:08:12;94650.22;;;8.55;51.12
11124;BME280;5616;42.692;23.312;2023-04-06T13:10:43;94655.47;;;8.47;49.22
11124;BME280;5616;42.692;23.312;2023-04-06T13:13:10;94656.25;;;8.47;49.24
11124;BME280;5616;42.692;23.312;2023-04-06T13:15:36;94660.78;;;8.45;49.55
11124;BME280;5616;42.692;23.312;2023-04-06T13:18:05;94652.78;;;8.40;49.22